sensor_id;sensor_type;location;lat;lon;timestamp;temperature;humidity
16408;DHT22;8313;49.894;8.084;2022-08-02T00:01:53;23.60;75.90
16408;DHT22;8313;49.894;8.084;2022-08-02T00:04:19;23.40;76.00
16408;DHT22;8313;49.894;8.084;2022-08-02T00:06:44;23.40;76.40
16408;DHT22;8313;49.894;8.084;2022-08-02T00:09:10;23.40;76.40
16408;DHT22;8313;49.894;8.084;2022-08-02T00:11:36;23.40;76.40
16408;DHT22;8313;49.894;8.084;2022-08-02T00:14:02;23.40;76.40
16408;DHT22;8313;49.894;8.084;2022-08-02T00:16:28;23.40;76.50
16408;DHT22;8313;49.894;8.084;2022-08-02T00:18:54;23.30;76.70
16408;DHT22;8313;49.894;8.084;2022-08-02T00:21:19;23.30;77.00
16408;DHT22;8313;49.894;8.084;2022-08-02T00:23:45;23.20;77.30
16408;DHT22;8313;49.894;8.084;2022-08-02T00:26:11;23.20;77.40
16408;DHT22;8313;49.894;8.084;2022-08-02T00:28:36;23.10;77.40
16408;DHT22;8313;49.894;8.084;2022-08-02T00:31:02;23.10;77.20
16408;DHT22;8313;49.894;8.084;2022-08-02T00:33:28;23.20;77.20
16408;DHT22;8313;49.894;8.084;2022-08-02T00:35:54;23.20;77.00
16408;DHT22;8313;49.894;8.084;2022-08-02T00:38:19;23.20;76.60
16408;DHT22;8313;49.894;8.084;2022-08-02T00:40:49;23.20;76.80
16408;DHT22;8313;49.894;8.084;2022-08-02T00:43:16;23.20;76.90
16408;DHT22;8313;49.894;8.084;2022-08-02T00:45:42;23.10;76.60
16408;DHT22;8313;49.894;8.084;2022-08-02T00:48:09;23.10;77.10
16408;DHT22;8313;49.894;8.084;2022-08-02T00:50:36;23.00;77.20
16408;DHT22;8313;49.894;8.084;2022-08-02T00:53:02;23.00;77.60
16408;DHT22;8313;49.894;8.084;2022-08-02T00:55:28;22.90;77.80
16408;DHT22;8313;49.894;8.084;2022-08-02T00:57:54;22.90;77.40
16408;DHT22;8313;49.894;8.084;2022-08-02T01:00:20;22.90;77.50
16408;DHT22;8313;49.894;8.084;2022-08-02T01:02:46;22.90;77.20
16408;DHT22;8313;49.894;8.084;2022-08-02T01:05:12;23.00;77.30
16408;DHT22;8313;49.894;8.084;2022-08-02T01:07:38;23.00;77.10
16408;DHT22;8313;49.894;8.084;2022-08-02T01:10:05;23.00;77.00
16408;DHT22;8313;49.894;8.084;2022-08-02T01:12:31;23.00;77.20
16408;DHT22;8313;49.894;8.084;2022-08-02T01:15:00;23.00;77.50
16408;DHT22;8313;49.894;8.084;2022-08-02T01:23:30;22.90;77.20
16408;DHT22;8313;49.894;8.084;2022-08-02T01:29:12;22.90;77.70
16408;DHT22;8313;49.894;8.084;2022-08-02T01:31:56;22.80;77.50
16408;DHT22;8313;49.894;8.084;2022-08-02T01:34:29;22.80;78.10
16408;DHT22;8313;49.894;8.084;2022-08-02T01:37:19;22.70;79.10
16408;DHT22;8313;49.894;8.084;2022-08-02T01:39:55;22.60;78.80
16408;DHT22;8313;49.894;8.084;2022-08-02T01:42:23;22.60;78.90
16408;DHT22;8313;49.894;8.084;2022-08-02T01:44:52;22.60;79.60
16408;DHT22;8313;49.894;8.084;2022-08-02T01:47:25;22.50;80.50
16408;DHT22;8313;49.894;8.084;2022-08-02T01:49:53;22.50;79.50
16408;DHT22;8313;49.894;8.084;2022-08-02T01:52:21;22.50;79.80
16408;DHT22;8313;49.894;8.084;2022-08-02T01:55:02;22.40;80.30
16408;DHT22;8313;49.894;8.084;2022-08-02T01:57:52;22.40;80.50
16408;DHT22;8313;49.894;8.084;2022-08-02T02:00:22;22.30;80.70
16408;DHT22;8313;49.894;8.084;2022-08-02T02:02:51;22.30;80.80
16408;DHT22;8313;49.894;8.084;2022-08-02T02:05:21;22.30;81.00
16408;DHT22;8313;49.894;8.084;2022-08-02T02:07:50;22.30;80.60
16408;DHT22;8313;49.894;8.084;2022-08-02T02:10:23;22.30;80.30
16408;DHT22;8313;49.894;8.084;2022-08-02T02:12:49;22.30;80.00
16408;DHT22;8313;49.894;8.084;2022-08-02T02:15:16;22.30;80.20
16408;DHT22;8313;49.894;8.084;2022-08-02T02:17:44;22.30;80.00
16408;DHT22;8313;49.894;8.084;2022-08-02T02:20:13;22.20;80.30
16408;DHT22;8313;49.894;8.084;2022-08-02T02:22:40;22.20;80.90
16408;DHT22;8313;49.894;8.084;2022-08-02T02:25:08;22.20;80.70
16408;DHT22;8313;49.894;8.084;2022-08-02T02:27:35;22.20;80.50
16408;DHT22;8313;49.894;8.084;2022-08-02T02:30:03;22.20;80.40
16408;DHT22;8313;49.894;8.084;2022-08-02T02:32:29;22.20;80.00
16408;DHT22;8313;49.894;8.084;2022-08-02T02:34:58;22.20;80.50
16408;DHT22;8313;49.894;8.084;2022-08-02T02:37:25;22.20;80.40
16408;DHT22;8313;49.894;8.084;2022-08-02T02:39:53;22.20;80.60
16408;DHT22;8313;49.894;8.084;2022-08-02T02:42:23;22.20;80.70
16408;DHT22;8313;49.894;8.084;2022-08-02T02:44:51;22.20;80.70
16408;DHT22;8313;49.894;8.084;2022-08-02T02:47:19;22.10;80.00
16408;DHT22;8313;49.894;8.084;2022-08-02T02:49:46;22.10;80.00
16408;DHT22;8313;49.894;8.084;2022-08-02T02:52:14;22.10;80.20
16408;DHT22;8313;49.894;8.084;2022-08-02T02:54:42;22.10;80.20
16408;DHT22;8313;49.894;8.084;2022-08-02T02:57:09;22.10;80.00
16408;DHT22;8313;49.894;8.084;2022-08-02T02:59:35;22.10;80.20
16408;DHT22;8313;49.894;8.084;2022-08-02T03:02:04;22.10;80.10
16408;DHT22;8313;49.894;8.084;2022-08-02T03:04:31;22.10;80.30
16408;DHT22;8313;49.894;8.084;2022-08-02T03:06:56;22.10;80.10
16408;DHT22;8313;49.894;8.084;2022-08-02T03:09:24;22.10;80.30
16408;DHT22;8313;49.894;8.084;2022-08-02T03:11:51;22.00;81.10
16408;DHT22;8313;49.894;8.084;2022-08-02T03:14:17;22.00;80.30
16408;DHT22;8313;49.894;8.084;2022-08-02T03:16:51;22.00;80.00
16408;DHT22;8313;49.894;8.084;2022-08-02T03:19:18;22.00;80.20
16408;DHT22;8313;49.894;8.084;2022-08-02T03:21:46;22.00;80.20
16408;DHT22;8313;49.894;8.084;2022-08-02T03:24:13;22.00;80.20
16408;DHT22;8313;49.894;8.084;2022-08-02T03:26:39;22.00;80.50
16408;DHT22;8313;49.894;8.084;2022-08-02T03:29:05;22.00;80.70
16408;DHT22;8313;49.894;8.084;2022-08-02T03:31:32;22.00;80.20
16408;DHT22;8313;49.894;8.084;2022-08-02T03:33:59;21.90;80.30
16408;DHT22;8313;49.894;8.084;2022-08-02T03:36:28;21.90;80.50
16408;DHT22;8313;49.894;8.084;2022-08-02T03:38:55;21.90;80.40
16408;DHT22;8313;49.894;8.084;2022-08-02T03:41:22;21.90;80.60
16408;DHT22;8313;49.894;8.084;2022-08-02T03:43:48;21.90;80.50
16408;DHT22;8313;49.894;8.084;2022-08-02T03:46:16;21.80;80.70
16408;DHT22;8313;49.894;8.084;2022-08-02T03:48:43;21.90;80.70
16408;DHT22;8313;49.894;8.084;2022-08-02T03:51:09;21.80;80.70
16408;DHT22;8313;49.894;8.084;2022-08-02T03:53:36;21.80;80.80
16408;DHT22;8313;49.894;8.084;2022-08-02T03:56:04;21.80;80.60
16408;DHT22;8313;49.894;8.084;2022-08-02T03:58:29;21.80;80.10
16408;DHT22;8313;49.894;8.084;2022-08-02T04:00:57;21.80;80.90
16408;DHT22;8313;49.894;8.084;2022-08-02T04:03:23;21.70;80.60
16408;DHT22;8313;49.894;8.084;2022-08-02T04:05:49;21.70;80.40
16408;DHT22;8313;49.894;8.084;2022-08-02T04:08:15;21.70;80.50
16408;DHT22;8313;49.894;8.084;2022-08-02T04:10:41;21.70;80.10
16408;DHT22;8313;49.894;8.084;2022-08-02T04:13:29;21.70;81.00
16408;DHT22;8313;49.894;8.084;2022-08-02T04:15:58;21.70;81.00
16408;DHT22;8313;49.894;8.084;2022-08-02T04:18:33;21.60;81.00
16408;DHT22;8313;49.894;8.084;2022-08-02T04:21:03;21.60;80.90
16408;DHT22;8313;49.894;8.084;2022-08-02T04:23:30;21.60;81.10
16408;DHT22;8313;49.894;8.084;2022-08-02T04:25:58;21.60;80.90
16408;DHT22;8313;49.894;8.084;2022-08-02T04:28:25;21.60;81.00
16408;DHT22;8313;49.894;8.084;2022-08-02T04:30:51;21.60;81.30
16408;DHT22;8313;49.894;8.084;2022-08-02T04:33:18;21.60;81.30
16408;DHT22;8313;49.894;8.084;2022-08-02T04:35:44;21.50;81.80
16408;DHT22;8313;49.894;8.084;2022-08-02T04:38:13;21.50;81.30
16408;DHT22;8313;49.894;8.084;2022-08-02T04:40:39;21.50;81.80
16408;DHT22;8313;49.894;8.084;2022-08-02T04:43:05;21.50;81.80
16408;DHT22;8313;49.894;8.084;2022-08-02T04:45:31;21.50;82.00
16408;DHT22;8313;49.894;8.084;2022-08-02T04:47:57;21.40;82.90
16408;DHT22;8313;49.894;8.084;2022-08-02T04:50:23;21.50;82.50
16408;DHT22;8313;49.894;8.084;2022-08-02T04:52:49;21.50;81.80
16408;DHT22;8313;49.894;8.084;2022-08-02T04:55:14;21.50;82.70
16408;DHT22;8313;49.894;8.084;2022-08-02T04:57:40;21.40;83.00
16408;DHT22;8313;49.894;8.084;2022-08-02T05:00:22;21.40;83.20
16408;DHT22;8313;49.894;8.084;2022-08-02T05:02:49;21.40;83.60
16408;DHT22;8313;49.894;8.084;2022-08-02T05:05:17;21.40;83.30
16408;DHT22;8313;49.894;8.084;2022-08-02T05:07:43;21.40;83.30
16408;DHT22;8313;49.894;8.084;2022-08-02T05:10:09;21.40;82.70
16408;DHT22;8313;49.894;8.084;2022-08-02T05:12:37;21.40;83.00
16408;DHT22;8313;49.894;8.084;2022-08-02T05:15:03;21.40;83.40
16408;DHT22;8313;49.894;8.084;2022-08-02T05:17:29;21.40;82.90
16408;DHT22;8313;49.894;8.084;2022-08-02T05:19:54;21.30;84.50
16408;DHT22;8313;49.894;8.084;2022-08-02T05:22:20;21.30;84.80
16408;DHT22;8313;49.894;8.084;2022-08-02T05:24:46;21.30;84.90
16408;DHT22;8313;49.894;8.084;2022-08-02T05:27:11;21.30;84.60
16408;DHT22;8313;49.894;8.084;2022-08-02T05:29:40;21.30;84.90
16408;DHT22;8313;49.894;8.084;2022-08-02T05:32:06;21.30;85.60
16408;DHT22;8313;49.894;8.084;2022-08-02T05:34:31;21.30;85.80
16408;DHT22;8313;49.894;8.084;2022-08-02T05:36:57;21.30;85.40
16408;DHT22;8313;49.894;8.084;2022-08-02T05:39:22;21.30;85.80
16408;DHT22;8313;49.894;8.084;2022-08-02T05:41:48;21.30;86.40
16408;DHT22;8313;49.894;8.084;2022-08-02T05:44:14;21.40;85.70
16408;DHT22;8313;49.894;8.084;2022-08-02T05:46:40;21.30;86.20
16408;DHT22;8313;49.894;8.084;2022-08-02T05:49:05;21.30;86.80
16408;DHT22;8313;49.894;8.084;2022-08-02T05:51:38;21.30;87.60
16408;DHT22;8313;49.894;8.084;2022-08-02T05:59:31;21.40;88.00
16408;DHT22;8313;49.894;8.084;2022-08-02T06:02:02;21.40;88.80
16408;DHT22;8313;49.894;8.084;2022-08-02T06:04:58;21.40;90.00
16408;DHT22;8313;49.894;8.084;2022-08-02T06:07:29;21.40;90.50
16408;DHT22;8313;49.894;8.084;2022-08-02T06:09:55;21.40;90.20
16408;DHT22;8313;49.894;8.084;2022-08-02T06:12:24;21.40;89.60
16408;DHT22;8313;49.894;8.084;2022-08-02T06:14:53;21.40;89.10
16408;DHT22;8313;49.894;8.084;2022-08-02T06:17:20;21.50;89.50
16408;DHT22;8313;49.894;8.084;2022-08-02T06:19:46;21.50;89.50
16408;DHT22;8313;49.894;8.084;2022-08-02T06:22:13;21.60;89.30
16408;DHT22;8313;49.894;8.084;2022-08-02T06:24:44;21.60;89.20
16408;DHT22;8313;49.894;8.084;2022-08-02T06:27:14;21.60;89.50
16408;DHT22;8313;49.894;8.084;2022-08-02T06:29:42;21.60;89.40
16408;DHT22;8313;49.894;8.084;2022-08-02T06:32:09;21.60;89.60
16408;DHT22;8313;49.894;8.084;2022-08-02T06:34:38;21.60;89.40
16408;DHT22;8313;49.894;8.084;2022-08-02T06:37:30;21.70;89.70
16408;DHT22;8313;49.894;8.084;2022-08-02T06:42:50;21.70;89.40
16408;DHT22;8313;49.894;8.084;2022-08-02T06:45:16;21.80;89.60
16408;DHT22;8313;49.894;8.084;2022-08-02T06:47:43;21.80;89.70
16408;DHT22;8313;49.894;8.084;2022-08-02T06:50:09;21.90;89.70
16408;DHT22;8313;49.894;8.084;2022-08-02T06:52:35;21.90;89.80
16408;DHT22;8313;49.894;8.084;2022-08-02T06:55:03;21.90;89.50
16408;DHT22;8313;49.894;8.084;2022-08-02T06:57:30;22.00;90.00
16408;DHT22;8313;49.894;8.084;2022-08-02T06:59:56;22.00;90.30
16408;DHT22;8313;49.894;8.084;2022-08-02T07:02:23;22.10;90.50
16408;DHT22;8313;49.894;8.084;2022-08-02T07:04:49;22.20;90.80
16408;DHT22;8313;49.894;8.084;2022-08-02T07:07:14;22.30;91.70
16408;DHT22;8313;49.894;8.084;2022-08-02T07:09:40;22.30;91.20
16408;DHT22;8313;49.894;8.084;2022-08-02T07:12:06;22.40;91.50
16408;DHT22;8313;49.894;8.084;2022-08-02T07:14:32;22.40;91.60
16408;DHT22;8313;49.894;8.084;2022-08-02T07:16:57;22.50;91.70
16408;DHT22;8313;49.894;8.084;2022-08-02T07:19:23;22.60;91.50
16408;DHT22;8313;49.894;8.084;2022-08-02T07:21:49;22.60;91.50
16408;DHT22;8313;49.894;8.084;2022-08-02T07:24:14;22.70;91.20
16408;DHT22;8313;49.894;8.084;2022-08-02T07:26:40;22.70;90.90
16408;DHT22;8313;49.894;8.084;2022-08-02T07:29:06;22.70;90.50
16408;DHT22;8313;49.894;8.084;2022-08-02T07:31:31;22.70;90.80
16408;DHT22;8313;49.894;8.084;2022-08-02T07:33:57;22.80;90.50
16408;DHT22;8313;49.894;8.084;2022-08-02T07:36:23;22.80;90.10
16408;DHT22;8313;49.894;8.084;2022-08-02T07:38:48;22.90;90.10
16408;DHT22;8313;49.894;8.084;2022-08-02T07:41:14;23.00;89.30
16408;DHT22;8313;49.894;8.084;2022-08-02T07:43:40;23.00;88.70
16408;DHT22;8313;49.894;8.084;2022-08-02T07:46:06;23.10;88.70
16408;DHT22;8313;49.894;8.084;2022-08-02T07:48:32;23.20;88.20
16408;DHT22;8313;49.894;8.084;2022-08-02T07:50:57;23.20;85.50
16408;DHT22;8313;49.894;8.084;2022-08-02T07:53:23;23.30;86.70
16408;DHT22;8313;49.894;8.084;2022-08-02T07:55:49;23.40;87.30
16408;DHT22;8313;49.894;8.084;2022-08-02T07:58:15;23.50;84.50
16408;DHT22;8313;49.894;8.084;2022-08-02T08:00:42;23.50;84.10
16408;DHT22;8313;49.894;8.084;2022-08-02T08:03:08;23.70;83.70
16408;DHT22;8313;49.894;8.084;2022-08-02T08:05:34;23.70;82.60
16408;DHT22;8313;49.894;8.084;2022-08-02T08:08:00;23.80;82.20
16408;DHT22;8313;49.894;8.084;2022-08-02T08:10:26;23.80;81.80
16408;DHT22;8313;49.894;8.084;2022-08-02T08:12:52;23.90;82.20
16408;DHT22;8313;49.894;8.084;2022-08-02T08:15:20;23.90;82.00
16408;DHT22;8313;49.894;8.084;2022-08-02T08:17:45;24.00;81.90
16408;DHT22;8313;49.894;8.084;2022-08-02T08:20:11;24.20;81.90
16408;DHT22;8313;49.894;8.084;2022-08-02T08:22:37;24.30;81.40
16408;DHT22;8313;49.894;8.084;2022-08-02T08:25:03;24.40;80.50
16408;DHT22;8313;49.894;8.084;2022-08-02T08:27:28;24.50;80.50
16408;DHT22;8313;49.894;8.084;2022-08-02T08:29:54;24.60;79.00
16408;DHT22;8313;49.894;8.084;2022-08-02T08:32:20;24.60;77.00
16408;DHT22;8313;49.894;8.084;2022-08-02T08:34:46;24.60;77.70
16408;DHT22;8313;49.894;8.084;2022-08-02T08:37:12;24.80;78.30
16408;DHT22;8313;49.894;8.084;2022-08-02T08:39:37;24.90;77.80
16408;DHT22;8313;49.894;8.084;2022-08-02T08:42:07;25.00;77.30
16408;DHT22;8313;49.894;8.084;2022-08-02T08:44:36;25.20;76.10
16408;DHT22;8313;49.894;8.084;2022-08-02T08:47:03;25.30;76.20
16408;DHT22;8313;49.894;8.084;2022-08-02T08:49:40;25.40;76.20
16408;DHT22;8313;49.894;8.084;2022-08-02T08:52:10;25.50;75.60
16408;DHT22;8313;49.894;8.084;2022-08-02T08:54:37;25.60;75.30
16408;DHT22;8313;49.894;8.084;2022-08-02T08:57:05;25.70;75.40
16408;DHT22;8313;49.894;8.084;2022-08-02T08:59:31;25.70;74.10
16408;DHT22;8313;49.894;8.084;2022-08-02T09:01:57;25.70;73.90
16408;DHT22;8313;49.894;8.084;2022-08-02T09:04:23;25.90;74.10
16408;DHT22;8313;49.894;8.084;2022-08-02T09:06:48;25.90;72.20
16408;DHT22;8313;49.894;8.084;2022-08-02T09:09:14;26.00;73.30
16408;DHT22;8313;49.894;8.084;2022-08-02T09:11:40;26.00;72.70
16408;DHT22;8313;49.894;8.084;2022-08-02T09:14:05;26.10;73.30
16408;DHT22;8313;49.894;8.084;2022-08-02T09:16:35;26.20;73.20
16408;DHT22;8313;49.894;8.084;2022-08-02T09:19:22;26.30;71.80
16408;DHT22;8313;49.894;8.084;2022-08-02T09:21:50;26.50;72.40
16408;DHT22;8313;49.894;8.084;2022-08-02T09:24:19;26.50;70.80
16408;DHT22;8313;49.894;8.084;2022-08-02T09:26:46;26.70;70.40
16408;DHT22;8313;49.894;8.084;2022-08-02T09:29:12;26.80;68.90
16408;DHT22;8313;49.894;8.084;2022-08-02T09:31:38;26.90;70.60
16408;DHT22;8313;49.894;8.084;2022-08-02T09:34:04;27.00;70.50
16408;DHT22;8313;49.894;8.084;2022-08-02T09:36:44;27.10;70.30
16408;DHT22;8313;49.894;8.084;2022-08-02T09:39:13;27.20;68.70
16408;DHT22;8313;49.894;8.084;2022-08-02T09:41:41;27.30;69.70
16408;DHT22;8313;49.894;8.084;2022-08-02T09:44:09;27.60;68.80
16408;DHT22;8313;49.894;8.084;2022-08-02T09:46:38;27.80;67.60
16408;DHT22;8313;49.894;8.084;2022-08-02T09:49:13;27.90;67.10
16408;DHT22;8313;49.894;8.084;2022-08-02T09:51:49;28.10;65.80
16408;DHT22;8313;49.894;8.084;2022-08-02T09:56:48;28.30;65.90
16408;DHT22;8313;49.894;8.084;2022-08-02T09:59:15;28.40;65.80
16408;DHT22;8313;49.894;8.084;2022-08-02T10:01:43;28.50;65.20
16408;DHT22;8313;49.894;8.084;2022-08-02T10:04:11;28.50;65.50
16408;DHT22;8313;49.894;8.084;2022-08-02T10:06:38;28.50;66.00
16408;DHT22;8313;49.894;8.084;2022-08-02T10:09:05;28.70;65.20
16408;DHT22;8313;49.894;8.084;2022-08-02T10:11:31;28.80;64.60
16408;DHT22;8313;49.894;8.084;2022-08-02T10:13:58;28.90;64.70
16408;DHT22;8313;49.894;8.084;2022-08-02T10:16:24;28.90;63.80
16408;DHT22;8313;49.894;8.084;2022-08-02T10:18:52;28.90;64.70
16408;DHT22;8313;49.894;8.084;2022-08-02T10:24:22;29.20;62.60
16408;DHT22;8313;49.894;8.084;2022-08-02T10:26:49;29.20;62.40
16408;DHT22;8313;49.894;8.084;2022-08-02T10:29:16;29.30;62.50
16408;DHT22;8313;49.894;8.084;2022-08-02T10:31:48;29.30;63.10
16408;DHT22;8313;49.894;8.084;2022-08-02T10:34:17;29.40;62.70
16408;DHT22;8313;49.894;8.084;2022-08-02T10:36:45;29.70;61.50
16408;DHT22;8313;49.894;8.084;2022-08-02T10:39:12;29.80;61.80
16408;DHT22;8313;49.894;8.084;2022-08-02T10:41:45;29.80;61.10
16408;DHT22;8313;49.894;8.084;2022-08-02T10:46:45;30.20;59.40
16408;DHT22;8313;49.894;8.084;2022-08-02T10:54:24;30.50;59.00
16408;DHT22;8313;49.894;8.084;2022-08-02T10:56:53;30.50;58.60
16408;DHT22;8313;49.894;8.084;2022-08-02T10:59:24;30.40;58.40
16408;DHT22;8313;49.894;8.084;2022-08-02T11:01:51;30.40;58.50
16408;DHT22;8313;49.894;8.084;2022-08-02T11:04:21;30.30;58.60
16408;DHT22;8313;49.894;8.084;2022-08-02T11:07:12;30.10;58.20
16408;DHT22;8313;49.894;8.084;2022-08-02T11:09:46;30.10;57.90
16408;DHT22;8313;49.894;8.084;2022-08-02T11:14:45;30.30;58.40
16408;DHT22;8313;49.894;8.084;2022-08-02T11:17:22;30.50;58.10
16408;DHT22;8313;49.894;8.084;2022-08-02T11:22:37;30.60;58.00
16408;DHT22;8313;49.894;8.084;2022-08-02T11:27:55;31.30;56.30
16408;DHT22;8313;49.894;8.084;2022-08-02T11:30:21;31.40;56.20
16408;DHT22;8313;49.894;8.084;2022-08-02T11:32:48;31.50;56.40
16408;DHT22;8313;49.894;8.084;2022-08-02T11:35:14;31.50;56.30
16408;DHT22;8313;49.894;8.084;2022-08-02T11:37:44;31.70;55.30
16408;DHT22;8313;49.894;8.084;2022-08-02T11:40:16;31.80;55.60
16408;DHT22;8313;49.894;8.084;2022-08-02T11:42:44;31.80;55.50
16408;DHT22;8313;49.894;8.084;2022-08-02T11:45:14;31.80;55.40
16408;DHT22;8313;49.894;8.084;2022-08-02T11:47:47;31.80;55.70
16408;DHT22;8313;49.894;8.084;2022-08-02T11:50:14;31.90;55.50
16408;DHT22;8313;49.894;8.084;2022-08-02T11:52:40;31.80;55.40
16408;DHT22;8313;49.894;8.084;2022-08-02T11:55:07;31.80;56.00
16408;DHT22;8313;49.894;8.084;2022-08-02T11:57:33;31.80;56.10
16408;DHT22;8313;49.894;8.084;2022-08-02T11:59:59;32.20;54.90
16408;DHT22;8313;49.894;8.084;2022-08-02T12:02:29;32.30;55.30
16408;DHT22;8313;49.894;8.084;2022-08-02T12:05:05;32.40;55.30
16408;DHT22;8313;49.894;8.084;2022-08-02T12:07:32;32.50;54.90
16408;DHT22;8313;49.894;8.084;2022-08-02T12:10:04;32.50;54.80
16408;DHT22;8313;49.894;8.084;2022-08-02T12:12:30;32.50;54.60
16408;DHT22;8313;49.894;8.084;2022-08-02T12:14:55;32.30;54.50
16408;DHT22;8313;49.894;8.084;2022-08-02T12:17:25;32.30;55.00
16408;DHT22;8313;49.894;8.084;2022-08-02T12:20:10;32.20;54.80
16408;DHT22;8313;49.894;8.084;2022-08-02T12:22:36;31.90;53.90
16408;DHT22;8313;49.894;8.084;2022-08-02T12:25:19;31.90;54.90
16408;DHT22;8313;49.894;8.084;2022-08-02T12:27:47;31.80;54.40
16408;DHT22;8313;49.894;8.084;2022-08-02T12:30:15;31.80;54.80
16408;DHT22;8313;49.894;8.084;2022-08-02T12:32:42;32.10;54.60
16408;DHT22;8313;49.894;8.084;2022-08-02T12:35:18;32.60;54.40
16408;DHT22;8313;49.894;8.084;2022-08-02T12:37:48;32.80;54.00
16408;DHT22;8313;49.894;8.084;2022-08-02T12:40:24;32.90;54.40
16408;DHT22;8313;49.894;8.084;2022-08-02T12:43:01;33.00;54.10
16408;DHT22;8313;49.894;8.084;2022-08-02T12:45:30;33.00;54.30
16408;DHT22;8313;49.894;8.084;2022-08-02T12:47:57;33.20;53.80
16408;DHT22;8313;49.894;8.084;2022-08-02T12:52:49;33.20;53.80
16408;DHT22;8313;49.894;8.084;2022-08-02T12:55:24;33.30;54.20
16408;DHT22;8313;49.894;8.084;2022-08-02T12:57:59;33.40;53.70
16408;DHT22;8313;49.894;8.084;2022-08-02T13:00:35;33.30;53.80
16408;DHT22;8313;49.894;8.084;2022-08-02T13:03:02;33.40;54.00
16408;DHT22;8313;49.894;8.084;2022-08-02T13:05:29;33.40;53.80
16408;DHT22;8313;49.894;8.084;2022-08-02T13:07:56;33.50;54.10
16408;DHT22;8313;49.894;8.084;2022-08-02T13:10:22;33.50;53.50
16408;DHT22;8313;49.894;8.084;2022-08-02T13:12:49;33.50;52.90
16408;DHT22;8313;49.894;8.084;2022-08-02T13:15:15;33.60;52.80
16408;DHT22;8313;49.894;8.084;2022-08-02T13:17:41;33.60;53.30
16408;DHT22;8313;49.894;8.084;2022-08-02T13:20:07;33.60;53.60
16408;DHT22;8313;49.894;8.084;2022-08-02T13:22:33;33.70;53.30
16408;DHT22;8313;49.894;8.084;2022-08-02T13:24:59;33.70;53.50
16408;DHT22;8313;49.894;8.084;2022-08-02T13:27:25;33.70;53.80
16408;DHT22;8313;49.894;8.084;2022-08-02T13:29:53;33.80;52.90
16408;DHT22;8313;49.894;8.084;2022-08-02T13:32:19;33.80;52.70
16408;DHT22;8313;49.894;8.084;2022-08-02T13:34:45;33.90;53.20
16408;DHT22;8313;49.894;8.084;2022-08-02T13:37:11;33.90;53.20
16408;DHT22;8313;49.894;8.084;2022-08-02T13:39:36;33.80;52.40
16408;DHT22;8313;49.894;8.084;2022-08-02T13:42:02;33.90;53.00
16408;DHT22;8313;49.894;8.084;2022-08-02T13:44:28;33.90;52.80
16408;DHT22;8313;49.894;8.084;2022-08-02T13:46:54;33.90;51.80
16408;DHT22;8313;49.894;8.084;2022-08-02T13:49:19;33.90;52.40
16408;DHT22;8313;49.894;8.084;2022-08-02T13:51:46;33.90;52.00
16408;DHT22;8313;49.894;8.084;2022-08-02T13:54:13;34.10;51.50
16408;DHT22;8313;49.894;8.084;2022-08-02T13:56:39;34.20;51.10
16408;DHT22;8313;49.894;8.084;2022-08-02T13:59:04;34.30;51.10
16408;DHT22;8313;49.894;8.084;2022-08-02T14:01:30;34.40;50.80
16408;DHT22;8313;49.894;8.084;2022-08-02T14:03:57;34.40;50.60
16408;DHT22;8313;49.894;8.084;2022-08-02T14:06:24;34.40;50.80
16408;DHT22;8313;49.894;8.084;2022-08-02T14:08:50;34.50;50.50
16408;DHT22;8313;49.894;8.084;2022-08-02T14:11:16;34.40;50.00
16408;DHT22;8313;49.894;8.084;2022-08-02T14:13:42;34.40;50.20
16408;DHT22;8313;49.894;8.084;2022-08-02T14:16:08;34.40;50.60
16408;DHT22;8313;49.894;8.084;2022-08-02T14:18:33;34.20;50.90
16408;DHT22;8313;49.894;8.084;2022-08-02T14:20:59;34.10;50.80
16408;DHT22;8313;49.894;8.084;2022-08-02T14:23:25;34.00;51.20
16408;DHT22;8313;49.894;8.084;2022-08-02T14:25:51;34.00;50.90
16408;DHT22;8313;49.894;8.084;2022-08-02T14:28:17;33.90;50.60
16408;DHT22;8313;49.894;8.084;2022-08-02T14:30:43;34.10;51.00
16408;DHT22;8313;49.894;8.084;2022-08-02T14:33:08;34.20;51.20
16408;DHT22;8313;49.894;8.084;2022-08-02T14:35:34;34.30;50.10
16408;DHT22;8313;49.894;8.084;2022-08-02T14:38:00;34.40;50.70
16408;DHT22;8313;49.894;8.084;2022-08-02T14:40:26;34.30;50.10
16408;DHT22;8313;49.894;8.084;2022-08-02T14:42:52;34.30;50.90
16408;DHT22;8313;49.894;8.084;2022-08-02T14:45:18;34.20;50.70
16408;DHT22;8313;49.894;8.084;2022-08-02T14:47:49;34.20;50.50
16408;DHT22;8313;49.894;8.084;2022-08-02T14:50:16;34.20;50.60
16408;DHT22;8313;49.894;8.084;2022-08-02T14:52:46;34.20;50.30
16408;DHT22;8313;49.894;8.084;2022-08-02T14:55:13;34.10;50.20
16408;DHT22;8313;49.894;8.084;2022-08-02T14:57:39;34.20;50.10
16408;DHT22;8313;49.894;8.084;2022-08-02T15:00:05;34.20;49.80
16408;DHT22;8313;49.894;8.084;2022-08-02T15:02:31;34.20;49.80
16408;DHT22;8313;49.894;8.084;2022-08-02T15:04:57;34.30;50.80
16408;DHT22;8313;49.894;8.084;2022-08-02T15:07:23;34.30;50.20
16408;DHT22;8313;49.894;8.084;2022-08-02T15:09:48;34.30;50.20
16408;DHT22;8313;49.894;8.084;2022-08-02T15:12:15;34.30;50.10
16408;DHT22;8313;49.894;8.084;2022-08-02T15:14:41;34.20;49.70
16408;DHT22;8313;49.894;8.084;2022-08-02T15:17:07;34.20;50.20
16408;DHT22;8313;49.894;8.084;2022-08-02T15:19:33;34.20;50.10
16408;DHT22;8313;49.894;8.084;2022-08-02T15:21:59;34.10;50.00
16408;DHT22;8313;49.894;8.084;2022-08-02T15:24:25;34.00;50.20
16408;DHT22;8313;49.894;8.084;2022-08-02T15:26:51;34.10;50.10
16408;DHT22;8313;49.894;8.084;2022-08-02T15:29:18;34.00;50.10
16408;DHT22;8313;49.894;8.084;2022-08-02T15:31:44;34.00;50.20
16408;DHT22;8313;49.894;8.084;2022-08-02T15:34:10;34.00;50.10
16408;DHT22;8313;49.894;8.084;2022-08-02T15:36:36;34.00;50.00
16408;DHT22;8313;49.894;8.084;2022-08-02T15:39:02;34.00;50.40
16408;DHT22;8313;49.894;8.084;2022-08-02T15:41:28;33.90;50.30
16408;DHT22;8313;49.894;8.084;2022-08-02T15:43:54;33.90;50.00
16408;DHT22;8313;49.894;8.084;2022-08-02T15:46:20;33.90;49.80
16408;DHT22;8313;49.894;8.084;2022-08-02T15:48:48;33.90;50.00
16408;DHT22;8313;49.894;8.084;2022-08-02T15:51:14;33.90;49.70
16408;DHT22;8313;49.894;8.084;2022-08-02T15:53:40;33.80;49.80
16408;DHT22;8313;49.894;8.084;2022-08-02T15:56:06;33.80;50.10
16408;DHT22;8313;49.894;8.084;2022-08-02T15:58:32;33.70;49.70
16408;DHT22;8313;49.894;8.084;2022-08-02T16:00:58;33.70;49.50
16408;DHT22;8313;49.894;8.084;2022-08-02T16:03:24;33.70;49.40
16408;DHT22;8313;49.894;8.084;2022-08-02T16:05:49;33.60;49.70
16408;DHT22;8313;49.894;8.084;2022-08-02T16:08:15;33.60;50.10
16408;DHT22;8313;49.894;8.084;2022-08-02T16:10:41;33.60;50.20
16408;DHT22;8313;49.894;8.084;2022-08-02T16:13:08;33.50;50.20
16408;DHT22;8313;49.894;8.084;2022-08-02T16:15:53;33.50;50.30
16408;DHT22;8313;49.894;8.084;2022-08-02T16:18:18;33.50;50.20
16408;DHT22;8313;49.894;8.084;2022-08-02T16:20:44;33.50;50.50
16408;DHT22;8313;49.894;8.084;2022-08-02T16:23:10;33.50;50.30
16408;DHT22;8313;49.894;8.084;2022-08-02T16:25:38;33.40;50.10
16408;DHT22;8313;49.894;8.084;2022-08-02T16:28:03;33.40;50.60
16408;DHT22;8313;49.894;8.084;2022-08-02T16:30:29;33.40;50.70